Pagina principale
METAR-TAF:

METAR-TAF

Aeroporti :

Aeroporto Internazionale di Khartum

Khartum, Sudan

latitudine: 15-36N, longitudine: 032-33E, altezza: 382 m

Osservazione

Il bollettino è stato emesso 18 minuti fa, alle 00:00 UTC
Vento 2 kt da nord
Temperature 22°C
Umidità 25%
Pressione 1012 hPa
Visibilità 10 km o più
nessuna nube inferiore a 1500 m e nessun cumulonembo

METAR: HSSS 240000Z 36002KT CAVOK 22/01 Q1012 NOSIG

Ora: 03:18 (00:18 UTC)

Previsione

Il bollettino è stato emesso 1 ora e 18 minuti fa, alle 23:00 UTC
Previsione valida dal 24 alle 00 UTC al 25 alle 06 UTC
Vento 6 kt da nord/nord-ovest con raffiche fino a 18 kt
Visibilità 10 km o più
nessuna nube inferiore a 1500 m e nessun cumulonembo
Temporaneamente
dal 24 alle 03 UTC al 24 alle 07 UTC
Visibilità: 6000 m

TAF: HSSS 232300Z 2400/2506 34006G18KT CAVOK TEMPO 2403/2407 6000

Osservazioni e previsioni meteorologiche di più di 4000 aeroporti (messaggi METAR e TAF).

Le stazioni disponibili sono rappresentate dai dischi gialli e rossi sulla carta.

Puntare il mouse per vedere il nome della stazione.

Clicca sopra per visualizzare le osservazioni e previsioni meteorologiche.

Per cambiare la mappa : fare clic sui pulsanti verdi con una croce nera per ingrandire, il pulsante verde con un trattino per diminuire, o sulla freccia verde per le mappe adiacenti.


METAR-TAF: